Stevens Point, WI (54481)

6:42 AM CDT on April 26, 2015 (GMT -0500)
Forest Circle neighborhood | | Change Station
CLOSE
Current Station
Personal Weather Station
Location: Stevens Point, WI
Elevation: 1099 ft
Nearby Weather Stations

Elev 1099 ft 44.50 °N, 89.53 °W | Updated 29 seconds ago

Clear
Clear
29.1 °F
Feels Like 29 °F
N
0.0
Wind Variable Wind from NE
Gusts 0.0 mph

Today
High -- | Low -- °F
--% Chance of Precip.
Yesterday
High -- | Low -- °F
Precip. -- in
5:56 AM 7:56 PM
First Quarter, 55% visible
Pressure 30.05 in
Visibility 10.0 miles
Clouds Clear
Windchill 29 °F
Dew Point 20 °F
Humidity 67%
Rainfall 0.00 in
Snow Depth Not available.
UV 1.0 out of 12
Pollen 9.40 out of 12
Air Quality Not available.
Flu Activity Local Activity
METAR KSTE 261115Z AUTO 00000KT 10SM CLR M05/M08 A3005 RMK AO2 T10501080

More Conditions Fewer Conditions

Pressure 30.05 in
Visibility 10.0 miles
Clouds Clear
Windchill 29 °F
Dew Point 20 °F
Humidity 67%
Rainfall 0.00 in
Snow Depth Not available.
UV 1.0 out of 12
Pollen 9.40 out of 12
Air Quality Not available.
Flu Activity Local Activity
METAR KSTE 261115Z AUTO 00000KT 10SM CLR M05/M08 A3005 RMK AO2 T10501080

More Conditions Fewer Conditions

The full scope of the disaster following a powerful 7.8-magnitude earthquake in Nepal may not come into view for days, but global charities are already sending emergency aid. Click to see how you can help.

10-Day Weather Forecast

Almanac

Astronomy

Apr. 26, 2015 Rise Set
Actual Time
Civil Twilight
Nautical Twilight
Astronomical Twilight
Moon
Length of Visible Light
Length of Day
Tomorrow will be .
, % of the Moon is Illuminated

Today's Extremes

State Highs State Lows

Community

WunderPhotos

Upload Photos

1,816,964 photos uploaded!

WunderBlogs® & News

Nearby

Air Quality

  Air Quality AQ Index Pollutant
Not available.

Snow Depth

Station Depth Elevation

Earthquake Activity

City Distance Mag. Time & Date
Minimum magnitude displayed is 2.5.

Coastal Water Temperatures

Place Temperature

Stations

Nearby Weather Stations

Station Location Temp. Windchill Dew Point Humidity Wind Precip. Elev Updated Type